createdAt,value
2023-03-12T00:00:49.636Z,1023.29
2023-03-12T00:01:48.889Z,1023.44
2023-03-12T00:02:49.964Z,1023.44
2023-03-12T00:03:49.876Z,1023.44
2023-03-12T00:04:49.761Z,1023.44
2023-03-12T00:05:48.850Z,1023.28
2023-03-12T00:06:48.898Z,1023.50
2023-03-12T00:07:49.210Z,1023.48
2023-03-12T00:08:48.820Z,1023.50
2023-03-12T00:09:49.789Z,1023.53
2023-03-12T00:10:49.706Z,1023.51
2023-03-12T00:11:48.771Z,1023.53
2023-03-12T00:12:48.767Z,1023.55
2023-03-12T00:13:48.978Z,1023.57
2023-03-12T00:14:49.129Z,1023.56
2023-03-12T00:15:49.112Z,1023.56
2023-03-12T00:16:48.859Z,1023.58
2023-03-12T00:17:48.699Z,1023.61
2023-03-12T00:18:48.700Z,1023.62
2023-03-12T00:19:48.677Z,1023.79
2023-03-12T00:20:49.760Z,1023.79
2023-03-12T00:21:48.800Z,1023.83
2023-03-12T00:22:49.576Z,1023.83
2023-03-12T00:23:49.057Z,1023.85
2023-03-12T00:24:48.621Z,1023.86
2023-03-12T00:25:49.793Z,1023.90
2023-03-12T00:26:48.792Z,1023.91
2023-03-12T00:27:49.259Z,1023.90
2023-03-12T00:28:49.509Z,1023.87
2023-03-12T00:29:48.557Z,1023.86
2023-03-12T00:30:48.814Z,1023.84
2023-03-12T00:31:48.591Z,1023.85
2023-03-12T00:32:48.782Z,1023.85
2023-03-12T00:33:48.528Z,1023.84
2023-03-12T00:34:48.497Z,1023.84
2023-03-12T00:35:49.078Z,1023.85
2023-03-12T00:36:48.491Z,1023.87
2023-03-12T00:37:48.477Z,1023.88
2023-03-12T00:38:48.474Z,1023.89
2023-03-12T00:39:48.470Z,1023.88
2023-03-12T00:40:48.514Z,1023.90
2023-03-12T00:41:49.278Z,1023.91
2023-03-12T00:42:48.406Z,1023.96
2023-03-12T00:43:48.555Z,1023.97
2023-03-12T00:44:48.393Z,1023.97
2023-03-12T00:45:48.400Z,1023.95
2023-03-12T00:46:48.836Z,1023.98
2023-03-12T00:47:48.364Z,1023.97
2023-03-12T00:48:48.369Z,1023.98
2023-03-12T00:49:48.337Z,1024.16
2023-03-12T00:50:48.456Z,1024.16
2023-03-12T00:51:48.315Z,1024.19
2023-03-12T00:52:48.294Z,1024.20
2023-03-12T00:53:48.682Z,1024.21
2023-03-12T00:54:48.304Z,1024.22
2023-03-12T00:55:49.465Z,1024.25
2023-03-12T00:56:48.873Z,1024.27
2023-03-12T00:57:48.243Z,1024.31
2023-03-12T00:58:48.244Z,1024.51
2023-03-12T00:59:48.214Z,1024.52
2023-03-12T01:00:48.233Z,1024.51
2023-03-12T01:01:49.405Z,1024.52
2023-03-12T01:02:48.194Z,1024.56
2023-03-12T01:03:48.236Z,1024.57
2023-03-12T01:04:48.167Z,1024.57
2023-03-12T01:05:48.157Z,1024.59
2023-03-12T01:06:48.215Z,1024.59
2023-03-12T01:07:49.347Z,1024.59
2023-03-12T01:08:48.138Z,1024.59
2023-03-12T01:09:49.152Z,1024.58
2023-03-12T01:10:48.109Z,1024.60
2023-03-12T01:11:48.960Z,1024.63
2023-03-12T01:12:48.082Z,1024.63
2023-03-12T01:13:48.080Z,1024.68
2023-03-12T01:14:49.186Z,1024.68
2023-03-12T01:15:48.049Z,1024.69
2023-03-12T01:16:50.874Z,1024.69
2023-03-12T01:17:48.037Z,1024.70
2023-03-12T01:18:48.373Z,1024.89
2023-03-12T01:19:48.005Z,1024.92
2023-03-12T01:20:48.012Z,1024.91
2023-03-12T01:21:47.996Z,1024.94
2023-03-12T01:22:48.402Z,1024.94
2023-03-12T01:23:47.973Z,1024.98
2023-03-12T01:24:47.969Z,1024.99
2023-03-12T01:25:48.338Z,1024.99
2023-03-12T01:26:47.931Z,1024.98
2023-03-12T01:27:48.861Z,1024.98
2023-03-12T01:28:47.917Z,1024.99
2023-03-12T01:29:48.770Z,1025.01
2023-03-12T01:30:48.680Z,1025.06
2023-03-12T01:31:47.931Z,1025.08
2023-03-12T01:32:49.046Z,1025.09
2023-03-12T01:33:47.958Z,1025.26
2023-03-12T01:34:47.834Z,1025.10
2023-03-12T01:35:48.844Z,1025.29
2023-03-12T01:36:48.610Z,1025.28
2023-03-12T01:37:47.985Z,1025.27
2023-03-12T01:38:47.811Z,1025.25
2023-03-12T01:39:48.840Z,1025.30
2023-03-12T01:40:48.747Z,1025.30
2023-03-12T01:41:47.748Z,1025.32
2023-03-12T01:42:48.537Z,1025.35
2023-03-12T01:43:47.973Z,1025.33
2023-03-12T01:44:47.717Z,1025.34
2023-03-12T01:45:47.757Z,1025.34
2023-03-12T01:46:47.790Z,1025.33
2023-03-12T01:47:47.687Z,1025.34
2023-03-12T01:48:48.477Z,1025.33
2023-03-12T01:49:47.656Z,1025.34
2023-03-12T01:50:47.926Z,1025.35
2023-03-12T01:51:47.649Z,1025.33
2023-03-12T01:52:47.627Z,1025.31
2023-03-12T01:53:48.510Z,1025.29
2023-03-12T01:54:48.414Z,1025.29
2023-03-12T01:55:48.322Z,1025.28
2023-03-12T01:56:47.917Z,1025.31
2023-03-12T01:57:47.571Z,1025.29
2023-03-12T01:58:48.535Z,1025.27
2023-03-12T01:59:47.585Z,1025.09
2023-03-12T02:00:47.959Z,1025.27
2023-03-12T02:01:47.530Z,1025.10
2023-03-12T02:02:48.676Z,1025.10
2023-03-12T02:03:47.645Z,1025.28
2023-03-12T02:04:48.475Z,1025.09
2023-03-12T02:05:47.559Z,1025.28
2023-03-12T02:06:47.475Z,1025.26
2023-03-12T02:07:47.967Z,1025.26
2023-03-12T02:08:47.474Z,1025.27
2023-03-12T02:09:47.754Z,1025.32
2023-03-12T02:10:48.089Z,1025.31
2023-03-12T02:11:47.409Z,1025.30
2023-03-12T02:12:47.404Z,1025.34
2023-03-12T02:13:47.564Z,1025.34
2023-03-12T02:14:47.384Z,1025.36
2023-03-12T02:15:47.364Z,1025.36
2023-03-12T02:16:47.551Z,1025.37
2023-03-12T02:17:47.386Z,1025.37
2023-03-12T02:18:47.346Z,1025.38
2023-03-12T02:19:47.318Z,1025.37
2023-03-12T02:20:47.662Z,1025.39
2023-03-12T02:21:47.356Z,1025.40
2023-03-12T02:22:47.291Z,1025.43
2023-03-12T02:23:47.899Z,1025.41
2023-03-12T02:24:47.256Z,1025.41
2023-03-12T02:25:47.566Z,1025.44
2023-03-12T02:26:47.876Z,1025.44
2023-03-12T02:27:48.335Z,1025.48
2023-03-12T02:28:47.636Z,1025.47
2023-03-12T02:29:47.234Z,1025.47
2023-03-12T02:30:47.208Z,1025.46
2023-03-12T02:31:47.294Z,1025.47
2023-03-12T02:32:47.737Z,1025.48
2023-03-12T02:33:47.186Z,1025.47
2023-03-12T02:34:47.167Z,1025.47
2023-03-12T02:35:47.187Z,1025.49
2023-03-12T02:36:47.535Z,1025.48
2023-03-12T02:37:47.119Z,1025.50
2023-03-12T02:38:48.290Z,1025.49
2023-03-12T02:39:47.117Z,1025.52
2023-03-12T02:40:47.111Z,1025.45
2023-03-12T02:41:47.082Z,1025.45
2023-03-12T02:42:47.059Z,1025.46
2023-03-12T02:43:47.058Z,1025.44
2023-03-12T02:44:47.058Z,1025.47
2023-03-12T02:45:47.087Z,1025.47
2023-03-12T02:46:48.028Z,1025.49
2023-03-12T02:47:47.020Z,1025.48
2023-03-12T02:48:47.035Z,1025.50
2023-03-12T02:49:47.738Z,1025.50
2023-03-12T02:50:46.995Z,1025.50
2023-03-12T02:51:47.013Z,1025.51
2023-03-12T02:52:46.948Z,1025.69
2023-03-12T02:53:47.869Z,1025.70
2023-03-12T02:54:47.776Z,1025.71
2023-03-12T02:55:47.498Z,1025.71
2023-03-12T02:56:48.089Z,1025.72
2023-03-12T02:57:46.901Z,1025.71
2023-03-12T02:58:46.898Z,1025.72
2023-03-12T02:59:46.882Z,1025.73
2023-03-12T03:00:46.888Z,1025.76
2023-03-12T03:01:46.932Z,1025.76
2023-03-12T03:02:46.858Z,1025.76
2023-03-12T03:03:46.889Z,1025.80
2023-03-12T03:04:46.828Z,1025.78
2023-03-12T03:05:47.489Z,1025.80
2023-03-12T03:06:46.800Z,1025.85
2023-03-12T03:07:47.551Z,1025.83
2023-03-12T03:08:46.772Z,1025.82
2023-03-12T03:09:47.879Z,1025.85
2023-03-12T03:10:46.740Z,1025.86
2023-03-12T03:11:46.807Z,1025.88
2023-03-12T03:12:47.579Z,1025.87
2023-03-12T03:13:46.722Z,1025.87
2023-03-12T03:14:46.759Z,1025.88
2023-03-12T03:15:46.781Z,1025.92
2023-03-12T03:16:47.709Z,1025.90
2023-03-12T03:17:47.613Z,1026.11
2023-03-12T03:18:46.678Z,1026.10
2023-03-12T03:19:46.671Z,1026.15
2023-03-12T03:20:46.661Z,1026.19
2023-03-12T03:21:47.744Z,1026.23
2023-03-12T03:22:47.651Z,1026.26
2023-03-12T03:23:47.556Z,1026.27
2023-03-12T03:24:46.621Z,1026.26
2023-03-12T03:25:46.677Z,1026.26
2023-03-12T03:26:46.571Z,1026.27
2023-03-12T03:27:46.812Z,1026.29
2023-03-12T03:28:49.132Z,1026.27
2023-03-12T03:29:47.495Z,1026.28
2023-03-12T03:30:46.925Z,1026.28
2023-03-12T03:31:47.294Z,1026.29
2023-03-12T03:32:47.753Z,1026.32
2023-03-12T03:33:46.500Z,1026.35
2023-03-12T03:34:47.529Z,1026.34
2023-03-12T03:35:47.470Z,1026.37
2023-03-12T03:36:46.462Z,1026.34
2023-03-12T03:37:47.231Z,1026.32
2023-03-12T03:38:46.602Z,1026.34
2023-03-12T03:39:46.669Z,1026.35
2023-03-12T03:40:46.990Z,1026.54
2023-03-12T03:41:48.401Z,1026.53
2023-03-12T03:42:47.257Z,1026.57
2023-03-12T03:43:46.389Z,1026.55
2023-03-12T03:44:46.402Z,1026.57
2023-03-12T03:45:47.508Z,1026.59
2023-03-12T03:46:46.350Z,1026.57
2023-03-12T03:47:47.056Z,1026.58
2023-03-12T03:48:47.203Z,1026.58
2023-03-12T03:49:46.623Z,1026.57
2023-03-12T03:50:47.520Z,1026.57
2023-03-12T03:51:47.424Z,1026.59
2023-03-12T03:52:47.320Z,1026.61
2023-03-12T03:53:47.231Z,1026.62
2023-03-12T03:54:46.330Z,1026.59
2023-03-12T03:55:46.420Z,1026.62
2023-03-12T03:56:46.242Z,1026.67
2023-03-12T03:57:47.360Z,1026.65
2023-03-12T03:58:46.332Z,1026.65
2023-03-12T03:59:46.211Z,1026.67
2023-03-12T04:00:47.073Z,1026.69
2023-03-12T04:01:46.182Z,1026.68
2023-03-12T04:02:46.353Z,1026.66
2023-03-12T04:03:47.296Z,1026.66
2023-03-12T04:04:46.161Z,1026.63
2023-03-12T04:05:47.137Z,1026.65
2023-03-12T04:06:46.123Z,1026.64
2023-03-12T04:07:46.111Z,1026.67
2023-03-12T04:08:47.334Z,1026.66
2023-03-12T04:09:46.468Z,1026.66
2023-03-12T04:10:46.261Z,1026.68
2023-03-12T04:11:46.200Z,1026.67
2023-03-12T04:12:46.249Z,1026.66
2023-03-12T04:13:46.065Z,1026.66
2023-03-12T04:14:47.259Z,1026.62
2023-03-12T04:15:46.153Z,1026.61
2023-03-12T04:16:46.013Z,1026.60
2023-03-12T04:17:46.082Z,1026.61
2023-03-12T04:18:45.989Z,1026.62
2023-03-12T04:19:46.260Z,1026.58
2023-03-12T04:20:45.990Z,1026.56
2023-03-12T04:21:45.952Z,1026.54
2023-03-12T04:22:45.963Z,1026.36
2023-03-12T04:23:46.071Z,1026.36
2023-03-12T04:24:45.925Z,1026.37
2023-03-12T04:25:45.918Z,1026.37
2023-03-12T04:26:46.001Z,1026.35
2023-03-12T04:27:45.905Z,1026.38
2023-03-12T04:28:45.870Z,1026.56
2023-03-12T04:29:45.866Z,1026.56
2023-03-12T04:30:46.748Z,1026.56
2023-03-12T04:31:46.550Z,1026.55
2023-03-12T04:32:45.866Z,1026.56
2023-03-12T04:33:46.970Z,1026.55
2023-03-12T04:34:46.879Z,1026.55
2023-03-12T04:35:45.825Z,1026.57
2023-03-12T04:36:46.679Z,1026.57
2023-03-12T04:37:45.981Z,1026.59
2023-03-12T04:38:45.761Z,1026.64
2023-03-12T04:39:45.751Z,1026.62
2023-03-12T04:40:46.265Z,1026.59
2023-03-12T04:41:45.722Z,1026.62
2023-03-12T04:42:45.704Z,1026.60
2023-03-12T04:43:45.711Z,1026.62
2023-03-12T04:44:46.073Z,1026.62
2023-03-12T04:45:45.693Z,1026.58
2023-03-12T04:46:45.783Z,1026.59
2023-03-12T04:47:45.652Z,1026.57
2023-03-12T04:48:45.644Z,1026.57
2023-03-12T04:49:46.465Z,1026.54
2023-03-12T04:50:45.814Z,1026.55
2023-03-12T04:51:45.877Z,1026.53
2023-03-12T04:52:45.605Z,1026.54
2023-03-12T04:53:46.627Z,1026.56
2023-03-12T04:54:47.933Z,1026.56
2023-03-12T04:55:45.715Z,1026.56
2023-03-12T04:56:46.307Z,1026.55
2023-03-12T04:57:45.847Z,1026.55
2023-03-12T04:58:45.707Z,1026.54
2023-03-12T04:59:45.561Z,1026.56
2023-03-12T05:00:45.542Z,1026.53
2023-03-12T05:01:45.577Z,1026.54
2023-03-12T05:02:45.511Z,1026.59
2023-03-12T05:03:45.519Z,1026.58
2023-03-12T05:04:45.484Z,1026.56
2023-03-12T05:05:45.497Z,1026.60
2023-03-12T05:06:45.447Z,1026.60
2023-03-12T05:07:45.976Z,1026.63
2023-03-12T05:08:46.178Z,1026.61
2023-03-12T05:09:45.408Z,1026.61
2023-03-12T05:10:45.536Z,1026.61
2023-03-12T05:11:45.540Z,1026.64
2023-03-12T05:12:46.308Z,1026.61
2023-03-12T05:13:45.805Z,1026.54
2023-03-12T05:14:46.120Z,1026.37
2023-03-12T05:15:46.529Z,1026.36
2023-03-12T05:16:46.437Z,1026.32
2023-03-12T05:17:46.339Z,1026.26
2023-03-12T05:18:45.637Z,1026.18
2023-03-12T05:19:46.151Z,1026.18
2023-03-12T05:20:45.656Z,1026.17
2023-03-12T05:21:46.471Z,1026.13
2023-03-12T05:22:45.458Z,1025.93
2023-03-12T05:23:46.281Z,1025.87
2023-03-12T05:24:45.237Z,1025.85
2023-03-12T05:25:45.268Z,1025.80
2023-03-12T05:26:45.993Z,1025.73
2023-03-12T05:27:46.405Z,1025.51
2023-03-12T05:28:45.198Z,1025.47
2023-03-12T05:29:46.208Z,1025.41
2023-03-12T05:30:46.124Z,1025.41
2023-03-12T05:31:45.244Z,1025.41
2023-03-12T05:32:45.986Z,1025.45
2023-03-12T05:33:45.156Z,1025.42
2023-03-12T05:34:45.127Z,1025.37
2023-03-12T05:35:45.158Z,1025.29
2023-03-12T05:36:45.132Z,1025.10
2023-03-12T05:37:45.962Z,1025.06
2023-03-12T05:38:45.628Z,1025.10
2023-03-12T05:39:45.072Z,1025.00
2023-03-12T05:40:46.182Z,1024.96
2023-03-12T05:41:46.086Z,1024.91
2023-03-12T05:42:45.993Z,1024.70
2023-03-12T05:43:45.043Z,1024.70
2023-03-12T05:44:45.802Z,1024.68
2023-03-12T05:45:46.220Z,1024.69
2023-03-12T05:46:45.010Z,1024.68
2023-03-12T05:47:46.021Z,1024.64
2023-03-12T05:48:44.981Z,1024.62
2023-03-12T05:49:44.960Z,1024.62
2023-03-12T05:50:44.958Z,1024.63
2023-03-12T05:51:44.968Z,1024.62
2023-03-12T05:52:44.953Z,1024.62
2023-03-12T05:53:44.918Z,1024.64
2023-03-12T05:54:44.907Z,1024.62
2023-03-12T05:55:45.265Z,1024.64
2023-03-12T05:56:45.009Z,1024.61
2023-03-12T05:57:44.865Z,1024.59
2023-03-12T05:58:44.901Z,1024.60
2023-03-12T05:59:44.845Z,1024.58
2023-03-12T06:00:44.846Z,1024.59
2023-03-12T06:01:44.824Z,1024.59
2023-03-12T06:02:44.854Z,1024.61
2023-03-12T06:03:46.120Z,1024.59
2023-03-12T06:04:44.796Z,1024.57
2023-03-12T06:05:45.358Z,1024.59
2023-03-12T06:06:44.782Z,1024.59
2023-03-12T06:07:44.915Z,1024.63
2023-03-12T06:08:44.853Z,1024.70
2023-03-12T06:09:44.733Z,1024.68
2023-03-12T06:10:45.866Z,1024.67
2023-03-12T06:11:44.725Z,1024.69
2023-03-12T06:12:44.703Z,1024.90
2023-03-12T06:13:44.681Z,1024.95
2023-03-12T06:14:44.852Z,1025.01
2023-03-12T06:15:44.661Z,1025.00
2023-03-12T06:16:44.733Z,1024.99
2023-03-12T06:17:46.521Z,1025.00
2023-03-12T06:18:44.641Z,1025.00
2023-03-12T06:19:44.621Z,1025.05
2023-03-12T06:20:44.613Z,1025.07
2023-03-12T06:21:44.620Z,1025.09
2023-03-12T06:22:44.595Z,1025.11
2023-03-12T06:23:44.574Z,1025.30
2023-03-12T06:24:44.552Z,1025.35
2023-03-12T06:25:44.566Z,1025.37
2023-03-12T06:26:45.340Z,1025.42
2023-03-12T06:27:44.564Z,1025.45
2023-03-12T06:28:45.667Z,1025.49
2023-03-12T06:29:44.540Z,1025.48
2023-03-12T06:30:44.490Z,1025.50
2023-03-12T06:31:45.425Z,1025.73
2023-03-12T06:32:44.525Z,1025.74
2023-03-12T06:33:44.484Z,1025.77
2023-03-12T06:34:44.441Z,1025.81
2023-03-12T06:35:45.563Z,1025.84
2023-03-12T06:36:44.433Z,1025.85
2023-03-12T06:37:44.505Z,1025.91
2023-03-12T06:38:44.409Z,1025.91
2023-03-12T06:39:44.405Z,1025.94
2023-03-12T06:40:44.643Z,1025.95
2023-03-12T06:41:44.401Z,1025.95
2023-03-12T06:42:45.344Z,1026.15
2023-03-12T06:43:44.369Z,1026.14
2023-03-12T06:44:44.614Z,1026.13
2023-03-12T06:45:44.332Z,1026.13
2023-03-12T06:46:44.416Z,1026.14
2023-03-12T06:47:44.304Z,1026.17
2023-03-12T06:48:44.292Z,1026.18
2023-03-12T06:49:44.320Z,1026.15
2023-03-12T06:50:44.881Z,1026.21
2023-03-12T06:51:44.276Z,1026.19
2023-03-12T06:52:44.245Z,1026.18
2023-03-12T06:53:44.249Z,1026.21
2023-03-12T06:54:45.214Z,1026.29
2023-03-12T06:55:44.213Z,1026.30
2023-03-12T06:56:44.282Z,1026.32
2023-03-12T06:57:44.206Z,1026.31
2023-03-12T06:58:44.537Z,1026.30
2023-03-12T06:59:45.244Z,1026.30
2023-03-12T07:00:44.209Z,1026.28
2023-03-12T07:01:46.108Z,1026.28
2023-03-12T07:02:44.153Z,1026.32
2023-03-12T07:03:44.124Z,1026.38
2023-03-12T07:04:44.143Z,1026.59
2023-03-12T07:05:44.224Z,1026.62
2023-03-12T07:06:44.381Z,1026.65
2023-03-12T07:07:44.988Z,1026.68
2023-03-12T07:08:44.097Z,1026.69
2023-03-12T07:09:44.796Z,1026.69
2023-03-12T07:10:44.197Z,1026.69
2023-03-12T07:11:45.127Z,1026.69
2023-03-12T07:12:44.018Z,1026.71
2023-03-12T07:13:44.010Z,1026.74
2023-03-12T07:14:44.002Z,1026.80
2023-03-12T07:15:44.053Z,1027.00
2023-03-12T07:16:43.980Z,1026.81
2023-03-12T07:17:44.317Z,1026.80
2023-03-12T07:18:43.964Z,1026.77
2023-03-12T07:19:43.960Z,1026.78
2023-03-12T07:20:43.928Z,1026.81
2023-03-12T07:21:44.049Z,1027.01
2023-03-12T07:22:45.115Z,1027.01
2023-03-12T07:23:44.162Z,1027.07
2023-03-12T07:24:44.901Z,1027.12
2023-03-12T07:25:44.808Z,1027.15
2023-03-12T07:26:43.892Z,1027.13
2023-03-12T07:27:44.611Z,1027.06
2023-03-12T07:28:45.031Z,1027.04
2023-03-12T07:29:44.933Z,1027.01
2023-03-12T07:30:43.823Z,1027.01
2023-03-12T07:31:43.960Z,1026.81
2023-03-12T07:32:43.880Z,1026.81
2023-03-12T07:33:44.053Z,1026.81
2023-03-12T07:34:43.771Z,1026.78
2023-03-12T07:35:43.865Z,1026.80
2023-03-12T07:36:44.002Z,1026.82
2023-03-12T07:37:44.674Z,1027.03
2023-03-12T07:38:44.579Z,1027.00
2023-03-12T07:39:43.829Z,1026.79
2023-03-12T07:40:44.112Z,1026.79
2023-03-12T07:41:43.702Z,1026.81
2023-03-12T07:42:43.838Z,1027.01
2023-03-12T07:43:43.714Z,1027.03
2023-03-12T07:44:44.515Z,1027.05
2023-03-12T07:45:43.669Z,1027.11
2023-03-12T07:46:43.699Z,1027.16
2023-03-12T07:47:43.736Z,1027.19
2023-03-12T07:48:44.401Z,1027.24
2023-03-12T07:49:43.755Z,1027.27
2023-03-12T07:50:44.482Z,1027.26
2023-03-12T07:51:44.576Z,1027.27
2023-03-12T07:52:43.697Z,1027.48
2023-03-12T07:53:44.384Z,1027.51
2023-03-12T07:54:43.617Z,1027.57
2023-03-12T07:55:44.564Z,1027.59
2023-03-12T07:56:43.572Z,1027.68
2023-03-12T07:57:44.349Z,1027.71
2023-03-12T07:58:43.635Z,1027.69
2023-03-12T07:59:43.689Z,1027.66
2023-03-12T08:00:44.636Z,1027.66
2023-03-12T08:01:45.891Z,1027.65
2023-03-12T08:02:44.469Z,1027.70
2023-03-12T08:03:44.377Z,1027.78
2023-03-12T08:04:43.455Z,1027.84
2023-03-12T08:05:44.589Z,1028.01
2023-03-12T08:06:44.607Z,1028.03
2023-03-12T08:07:44.349Z,1028.10
2023-03-12T08:08:44.344Z,1028.15
2023-03-12T08:09:43.470Z,1028.19
2023-03-12T08:10:43.347Z,1028.24
2023-03-12T08:11:43.360Z,1028.26
2023-03-12T08:12:44.374Z,1028.29
2023-03-12T08:13:44.429Z,1028.36
2023-03-12T08:14:44.258Z,1028.39
2023-03-12T08:15:44.094Z,1028.35
2023-03-12T08:16:44.526Z,1028.32
2023-03-12T08:17:44.418Z,1028.32
2023-03-12T08:18:44.331Z,1028.29
2023-03-12T08:19:44.230Z,1028.31
2023-03-12T08:20:44.124Z,1028.33
2023-03-12T08:21:44.163Z,1028.39
2023-03-12T08:22:43.213Z,1028.59
2023-03-12T08:23:44.344Z,1028.60
2023-03-12T08:24:44.269Z,1028.62
2023-03-12T08:25:43.177Z,1028.69
2023-03-12T08:26:43.248Z,1028.71
2023-03-12T08:27:43.280Z,1028.73
2023-03-12T08:28:43.166Z,1028.73
2023-03-12T08:29:43.448Z,1028.74
2023-03-12T08:30:44.186Z,1028.76
2023-03-12T08:32:01.420Z,1028.78
2023-03-12T08:32:45.035Z,1028.79
2023-03-12T08:33:43.205Z,1028.81
2023-03-12T08:34:45.880Z,1028.80
2023-03-12T08:35:44.294Z,1028.83
2023-03-12T08:36:44.129Z,1028.78
2023-03-12T08:37:43.183Z,1028.85
2023-03-12T08:38:43.039Z,1028.83
2023-03-12T08:39:43.064Z,1028.85
2023-03-12T08:40:43.740Z,1028.93
2023-03-12T08:41:43.013Z,1029.07
2023-03-12T08:42:43.183Z,1029.29
2023-03-12T08:43:43.966Z,1029.31
2023-03-12T08:44:43.304Z,1029.36
2023-03-12T08:45:43.057Z,1029.35
2023-03-12T08:46:43.680Z,1029.38
2023-03-12T08:47:43.395Z,1029.46
2023-03-12T08:48:43.142Z,1029.63
2023-03-12T08:49:43.900Z,1029.77
2023-03-12T08:50:42.912Z,1030.00
2023-03-12T08:51:43.092Z,1030.16
2023-03-12T08:52:42.897Z,1030.25
2023-03-12T08:53:42.882Z,1030.32
2023-03-12T08:54:42.855Z,1030.41
2023-03-12T08:55:42.844Z,1030.42
2023-03-12T08:56:42.912Z,1030.44
2023-03-12T08:57:42.824Z,1030.36
2023-03-12T08:58:43.552Z,1030.30
2023-03-12T08:59:44.062Z,1030.33
2023-03-12T09:00:43.245Z,1030.47
2023-03-12T09:01:44.079Z,1030.60
2023-03-12T09:02:42.895Z,1030.69
2023-03-12T09:03:43.586Z,1030.81
2023-03-12T09:04:42.930Z,1030.83
2023-03-12T09:05:43.915Z,1030.85
2023-03-12T09:06:43.823Z,1030.90
2023-03-12T09:07:42.717Z,1030.92
2023-03-12T09:08:43.089Z,1030.97
2023-03-12T09:09:43.525Z,1031.07
2023-03-12T09:10:42.678Z,1031.27
2023-03-12T09:11:43.846Z,1031.47
2023-03-12T09:12:42.665Z,1031.58
2023-03-12T09:14:05.128Z,1031.67
2023-03-12T09:15:43.640Z,1031.55
2023-03-12T09:16:43.401Z,1031.47
2023-03-12T09:17:43.785Z,1031.35
2023-03-12T09:18:42.598Z,1031.28
2023-03-12T09:19:43.590Z,1031.17
2023-03-12T09:20:42.662Z,1031.21
2023-03-12T09:21:42.563Z,1031.26
2023-03-12T09:22:42.629Z,1031.17
2023-03-12T09:23:43.712Z,1031.18
2023-03-12T09:24:43.613Z,1031.12
2023-03-12T09:25:42.621Z,1031.09
2023-03-12T09:26:43.418Z,1031.07
2023-03-12T09:27:43.325Z,1031.04
2023-03-12T09:28:43.230Z,1030.98
2023-03-12T09:29:58.711Z,1030.93
2023-03-12T09:30:44.592Z,1030.86
2023-03-12T09:31:43.462Z,1030.93
2023-03-12T09:32:43.371Z,1030.94
2023-03-12T09:33:42.415Z,1030.86
2023-03-12T09:34:43.162Z,1030.84
2023-03-12T09:35:43.619Z,1030.80
2023-03-12T09:36:42.502Z,1030.82
2023-03-12T09:37:43.407Z,1030.88
2023-03-12T09:38:43.292Z,1030.89
2023-03-12T09:39:43.196Z,1030.93
2023-03-12T09:40:42.320Z,1030.97
2023-03-12T09:41:43.520Z,1031.00
2023-03-12T09:42:45.503Z,1031.02
2023-03-12T09:43:43.336Z,1031.03
2023-03-12T09:44:42.298Z,1031.10
2023-03-12T09:45:43.133Z,1031.15
2023-03-12T09:46:42.480Z,1031.22
2023-03-12T09:47:43.458Z,1031.21
2023-03-12T09:48:42.249Z,1031.28
2023-03-12T09:49:42.239Z,1031.41
2023-03-12T09:50:43.166Z,1031.51
2023-03-12T09:51:42.214Z,1031.52
2023-03-12T09:52:42.248Z,1031.52
2023-03-12T09:53:43.389Z,1031.55
2023-03-12T09:54:42.441Z,1031.59
2023-03-12T09:55:43.191Z,1031.71
2023-03-12T09:56:43.100Z,1031.82
2023-03-12T09:57:43.002Z,1031.96
2023-03-12T09:58:42.910Z,1032.02
2023-03-12T09:59:43.321Z,1032.10
2023-03-12T10:00:43.230Z,1032.10
2023-03-12T10:01:43.160Z,1032.17
2023-03-12T10:02:42.124Z,1032.21
2023-03-12T10:03:43.065Z,1032.31
2023-03-12T10:04:58.645Z,1032.32
2023-03-12T10:05:44.285Z,1032.24
2023-03-12T10:06:42.075Z,1032.37
2023-03-12T10:07:43.070Z,1032.30
2023-03-12T10:08:45.604Z,1032.33
2023-03-12T10:09:42.029Z,1032.38
2023-03-12T10:10:42.093Z,1032.51
2023-03-12T10:11:43.083Z,1032.60
2023-03-12T10:12:42.284Z,1032.60
2023-03-12T10:13:43.008Z,1032.72
2023-03-12T10:14:41.950Z,1032.81
2023-03-12T10:15:42.897Z,1033.01
2023-03-12T10:16:42.069Z,1033.05
2023-03-12T10:17:42.306Z,1033.05
2023-03-12T10:18:43.166Z,1033.08
2023-03-12T10:19:42.956Z,1033.26
2023-03-12T10:20:42.865Z,1033.27
2023-03-12T10:21:41.877Z,1033.26
2023-03-12T10:22:42.653Z,1033.25
2023-03-12T10:23:43.073Z,1033.08
2023-03-12T10:24:42.975Z,1033.07
2023-03-12T10:25:42.879Z,1033.06
2023-03-12T10:26:42.784Z,1033.06
2023-03-12T10:27:42.693Z,1033.05
2023-03-12T10:28:41.836Z,1033.07
2023-03-12T10:29:44.534Z,1033.09
2023-03-12T10:30:42.958Z,1033.07
2023-03-12T10:31:41.836Z,1033.06
2023-03-12T10:32:41.955Z,1033.03
2023-03-12T10:33:42.631Z,1033.01
2023-03-12T10:34:41.797Z,1033.01
2023-03-12T10:35:41.761Z,1033.02
2023-03-12T10:36:41.745Z,1032.84
2023-03-12T10:37:42.744Z,1032.84
2023-03-12T10:38:42.660Z,1033.02
2023-03-12T10:39:41.656Z,1033.02
2023-03-12T10:40:42.460Z,1033.01
2023-03-12T10:41:42.363Z,1033.02
2023-03-12T10:42:41.624Z,1033.05
2023-03-12T10:43:41.713Z,1033.07
2023-03-12T10:44:42.595Z,1033.25
2023-03-12T10:45:42.493Z,1033.09
2023-03-12T10:46:42.456Z,1033.09
2023-03-12T10:47:41.758Z,1033.29
2023-03-12T10:48:42.721Z,1033.31
2023-03-12T10:49:42.622Z,1033.33
2023-03-12T10:50:42.531Z,1033.51
2023-03-12T10:51:42.424Z,1033.52
2023-03-12T10:52:42.335Z,1033.56
2023-03-12T10:53:41.527Z,1033.74
2023-03-12T10:54:41.493Z,1033.56
2023-03-12T10:55:42.559Z,1033.74
2023-03-12T10:56:42.456Z,1033.76
2023-03-12T10:57:41.733Z,1033.80
2023-03-12T10:58:41.447Z,1034.01
2023-03-12T10:59:41.484Z,1034.07
2023-03-12T11:00:41.927Z,1034.08
2023-03-12T11:01:41.868Z,1034.07
2023-03-12T11:02:41.526Z,1034.28
2023-03-12T11:03:42.295Z,1034.28
2023-03-12T11:04:42.210Z,1034.29
2023-03-12T11:05:42.165Z,1034.19
2023-03-12T11:06:42.527Z,1034.27
2023-03-12T11:07:41.587Z,1034.32
2023-03-12T11:08:42.333Z,1034.33
2023-03-12T11:09:42.242Z,1034.34
2023-03-12T11:10:42.137Z,1034.51
2023-03-12T11:11:42.045Z,1034.36
2023-03-12T11:12:42.458Z,1034.24
2023-03-12T11:13:41.308Z,1034.15
2023-03-12T11:14:42.267Z,1034.24
2023-03-12T11:15:42.217Z,1034.27
2023-03-12T11:16:42.085Z,1034.00
2023-03-12T11:17:41.977Z,1033.83
2023-03-12T11:18:42.400Z,1033.46
2023-03-12T11:19:41.318Z,1032.69
2023-03-12T11:20:42.206Z,1032.64
2023-03-12T11:21:42.106Z,1032.51
2023-03-12T11:22:41.270Z,1032.79
2023-03-12T11:23:41.917Z,1032.59
2023-03-12T11:24:41.185Z,1031.68
2023-03-12T11:25:42.238Z,1029.76
2023-03-12T11:26:42.142Z,1028.87
2023-03-12T11:27:42.051Z,1029.79
2023-03-12T11:28:41.946Z,1031.28
2023-03-12T11:29:41.917Z,1030.67
2023-03-12T11:30:42.272Z,1032.01
2023-03-12T11:31:42.250Z,1032.25
2023-03-12T11:32:42.121Z,1032.18
2023-03-12T11:33:41.984Z,1031.74
2023-03-12T11:34:41.899Z,1031.79
2023-03-12T11:35:41.272Z,1032.42
2023-03-12T11:36:41.499Z,1032.71
2023-03-12T11:37:42.117Z,1032.32
2023-03-12T11:38:42.050Z,1032.75
2023-03-12T11:39:41.917Z,1034.05
2023-03-12T11:40:41.818Z,1035.06
2023-03-12T11:41:41.720Z,1034.61
2023-03-12T11:42:42.140Z,1033.96
2023-03-12T11:43:44.146Z,1034.56
2023-03-12T11:44:41.974Z,1035.15
2023-03-12T11:45:41.853Z,1034.44
2023-03-12T11:46:41.840Z,1028.36
2023-03-12T11:47:41.903Z,1015.19
2023-03-12T11:48:42.202Z,1018.22
2023-03-12T11:49:41.980Z,1025.06
2023-03-12T11:50:41.880Z,1020.53
2023-03-12T11:51:41.787Z,1022.72
2023-03-12T11:52:41.688Z,1029.49
2023-03-12T11:53:41.600Z,1025.28
2023-03-12T11:54:40.840Z,1020.32
2023-03-12T11:55:41.924Z,1017.59
2023-03-12T11:56:41.828Z,1021.26
2023-03-12T11:57:40.956Z,1022.43
2023-03-12T11:58:41.635Z,1024.00
2023-03-12T11:59:41.551Z,1019.19
2023-03-12T12:00:41.953Z,1010.45
2023-03-12T12:01:41.887Z,999.81
2023-03-12T12:02:41.768Z,1000.75
2023-03-12T12:03:41.673Z,1008.77
2023-03-12T12:04:41.569Z,1011.72
2023-03-12T12:05:41.479Z,1008.63
2023-03-12T12:06:41.372Z,1006.21